Terminal Aerodrome Forecast
Issued by NWS

Home | Current Version | Previous Version | Text Only | Print | Product List | Glossary On
Versions: 1 2 3 4 5 6 7 8 9 10 11 12 13 14 15 16 17 18 19 20
000
FTUS45 KCYS 221700
TAFLAR
TAF
KLAR 221732Z 2218/2318 25015G25KT P6SM VCTS SCT050 BKN100CB
      TEMPO 2218/2221 4SM -TSRA BKN050CB
     FM230100 25010KT P6SM BKN150
     FM231100 25011KT P6SM SCT150=

USA.gov is the U.S. government's official web portal to all federal, state and local government web resources and services.